sensor_id;sensor_type;location;lat;lon;timestamp;temperature;humidity
10660;DHT22;5378;53.206;13.316;2024-03-23T00:54:35;9.50;99.90
10660;DHT22;5378;53.206;13.316;2024-03-23T00:57:20;9.40;99.90
10660;DHT22;5378;53.206;13.316;2024-03-23T01:00:05;9.40;99.90
10660;DHT22;5378;53.206;13.316;2024-03-23T01:02:50;9.40;99.90
10660;DHT22;5378;53.206;13.316;2024-03-23T01:05:35;9.40;99.90
10660;DHT22;5378;53.206;13.316;2024-03-23T01:08:19;9.40;99.90
10660;DHT22;5378;53.206;13.316;2024-03-23T01:11:04;9.30;99.90
10660;DHT22;5378;53.206;13.316;2024-03-23T01:13:48;9.30;99.90
10660;DHT22;5378;53.206;13.316;2024-03-23T01:16:33;9.30;99.90
10660;DHT22;5378;53.206;13.316;2024-03-23T01:19:17;9.30;99.90
10660;DHT22;5378;53.206;13.316;2024-03-23T01:22:02;9.30;99.90
10660;DHT22;5378;53.206;13.316;2024-03-23T01:24:46;9.30;99.90
10660;DHT22;5378;53.206;13.316;2024-03-23T01:27:31;9.30;99.90
10660;DHT22;5378;53.206;13.316;2024-03-23T01:30:16;9.30;99.90
10660;DHT22;5378;53.206;13.316;2024-03-23T01:33:01;9.20;99.90
10660;DHT22;5378;53.206;13.316;2024-03-23T01:35:47;9.30;99.90
10660;DHT22;5378;53.206;13.316;2024-03-23T01:38:31;9.20;99.90
10660;DHT22;5378;53.206;13.316;2024-03-23T01:41:15;9.20;99.90
10660;DHT22;5378;53.206;13.316;2024-03-23T01:44:05;9.20;99.90
10660;DHT22;5378;53.206;13.316;2024-03-23T01:46:50;9.20;99.90
10660;DHT22;5378;53.206;13.316;2024-03-23T01:49:35;9.20;99.90
10660;DHT22;5378;53.206;13.316;2024-03-23T01:52:20;9.20;99.90
10660;DHT22;5378;53.206;13.316;2024-03-23T01:55:05;9.20;99.90
10660;DHT22;5378;53.206;13.316;2024-03-23T01:57:49;9.20;99.90
10660;DHT22;5378;53.206;13.316;2024-03-23T02:00:34;9.20;99.90
10660;DHT22;5378;53.206;13.316;2024-03-23T02:03:26;9.10;99.90
10660;DHT22;5378;53.206;13.316;2024-03-23T02:06:11;9.20;99.90
10660;DHT22;5378;53.206;13.316;2024-03-23T02:08:56;9.20;99.90
10660;DHT22;5378;53.206;13.316;2024-03-23T02:11:41;9.20;99.90
10660;DHT22;5378;53.206;13.316;2024-03-23T02:14:25;9.10;99.90
10660;DHT22;5378;53.206;13.316;2024-03-23T02:17:10;9.10;99.90
10660;DHT22;5378;53.206;13.316;2024-03-23T02:19:54;9.20;99.90
10660;DHT22;5378;53.206;13.316;2024-03-23T02:22:39;9.20;99.90
10660;DHT22;5378;53.206;13.316;2024-03-23T02:25:24;9.10;99.90
10660;DHT22;5378;53.206;13.316;2024-03-23T02:28:08;9.10;99.90
10660;DHT22;5378;53.206;13.316;2024-03-23T02:30:53;9.10;99.90
10660;DHT22;5378;53.206;13.316;2024-03-23T02:33:37;9.10;99.90
10660;DHT22;5378;53.206;13.316;2024-03-23T02:36:22;9.00;99.90
10660;DHT22;5378;53.206;13.316;2024-03-23T02:39:07;9.00;99.90
10660;DHT22;5378;53.206;13.316;2024-03-23T02:41:52;8.90;99.90
10660;DHT22;5378;53.206;13.316;2024-03-23T02:44:36;8.90;99.90
10660;DHT22;5378;53.206;13.316;2024-03-23T02:47:21;8.80;99.90
10660;DHT22;5378;53.206;13.316;2024-03-23T02:50:06;8.80;99.90
10660;DHT22;5378;53.206;13.316;2024-03-23T02:52:50;8.80;99.90
10660;DHT22;5378;53.206;13.316;2024-03-23T02:55:36;8.70;99.90
10660;DHT22;5378;53.206;13.316;2024-03-23T02:58:20;8.70;99.90
10660;DHT22;5378;53.206;13.316;2024-03-23T03:01:04;8.80;99.90
10660;DHT22;5378;53.206;13.316;2024-03-23T03:03:49;8.70;99.90
10660;DHT22;5378;53.206;13.316;2024-03-23T03:06:33;8.70;99.90
10660;DHT22;5378;53.206;13.316;2024-03-23T03:09:18;8.70;99.90
10660;DHT22;5378;53.206;13.316;2024-03-23T03:12:02;8.80;99.90
10660;DHT22;5378;53.206;13.316;2024-03-23T03:14:47;8.70;99.90
10660;DHT22;5378;53.206;13.316;2024-03-23T03:17:32;8.70;99.90
10660;DHT22;5378;53.206;13.316;2024-03-23T03:20:16;8.70;99.90
10660;DHT22;5378;53.206;13.316;2024-03-23T03:23:02;8.60;99.90
10660;DHT22;5378;53.206;13.316;2024-03-23T03:25:47;8.70;99.90
10660;DHT22;5378;53.206;13.316;2024-03-23T03:28:32;8.80;99.90
10660;DHT22;5378;53.206;13.316;2024-03-23T03:31:20;8.80;99.90
10660;DHT22;5378;53.206;13.316;2024-03-23T03:34:05;8.70;99.90
10660;DHT22;5378;53.206;13.316;2024-03-23T03:36:49;8.70;99.90
10660;DHT22;5378;53.206;13.316;2024-03-23T03:39:34;8.70;99.90
10660;DHT22;5378;53.206;13.316;2024-03-23T03:42:18;8.70;99.90
10660;DHT22;5378;53.206;13.316;2024-03-23T03:45:04;8.70;99.90
10660;DHT22;5378;53.206;13.316;2024-03-23T03:47:48;8.70;99.90
10660;DHT22;5378;53.206;13.316;2024-03-23T03:50:33;8.70;99.90
10660;DHT22;5378;53.206;13.316;2024-03-23T03:53:18;8.70;99.90
10660;DHT22;5378;53.206;13.316;2024-03-23T03:56:03;8.60;99.90
10660;DHT22;5378;53.206;13.316;2024-03-23T03:58:48;8.60;99.90
10660;DHT22;5378;53.206;13.316;2024-03-23T04:01:33;8.60;99.90
10660;DHT22;5378;53.206;13.316;2024-03-23T04:04:17;8.70;99.90
10660;DHT22;5378;53.206;13.316;2024-03-23T04:07:02;8.60;99.90
10660;DHT22;5378;53.206;13.316;2024-03-23T04:09:47;8.60;99.90
10660;DHT22;5378;53.206;13.316;2024-03-23T04:12:32;6.60;99.90
10660;DHT22;5378;53.206;13.316;2024-03-23T04:15:16;8.70;99.90
10660;DHT22;5378;53.206;13.316;2024-03-23T04:18:01;8.60;99.90
10660;DHT22;5378;53.206;13.316;2024-03-23T04:20:45;8.70;99.90
10660;DHT22;5378;53.206;13.316;2024-03-23T04:23:29;8.70;99.90
10660;DHT22;5378;53.206;13.316;2024-03-23T04:26:15;8.70;99.90
10660;DHT22;5378;53.206;13.316;2024-03-23T04:29:00;8.70;99.90
10660;DHT22;5378;53.206;13.316;2024-03-23T04:31:45;8.70;99.90
10660;DHT22;5378;53.206;13.316;2024-03-23T04:34:30;8.70;99.90
10660;DHT22;5378;53.206;13.316;2024-03-23T04:37:14;8.60;99.90
10660;DHT22;5378;53.206;13.316;2024-03-23T04:40:01;8.70;99.90
10660;DHT22;5378;53.206;13.316;2024-03-23T04:42:46;8.60;99.90
10660;DHT22;5378;53.206;13.316;2024-03-23T04:45:31;8.60;99.90
10660;DHT22;5378;53.206;13.316;2024-03-23T04:48:15;8.60;99.90
10660;DHT22;5378;53.206;13.316;2024-03-23T04:51:00;8.60;99.90
10660;DHT22;5378;53.206;13.316;2024-03-23T04:53:44;8.60;99.90
10660;DHT22;5378;53.206;13.316;2024-03-23T04:56:30;8.70;99.90
10660;DHT22;5378;53.206;13.316;2024-03-23T04:59:15;8.60;99.90
10660;DHT22;5378;53.206;13.316;2024-03-23T05:02:00;8.60;99.90
10660;DHT22;5378;53.206;13.316;2024-03-23T05:04:45;8.60;99.90
10660;DHT22;5378;53.206;13.316;2024-03-23T05:07:29;8.50;99.90
10660;DHT22;5378;53.206;13.316;2024-03-23T05:10:13;8.50;99.90
10660;DHT22;5378;53.206;13.316;2024-03-23T05:12:58;8.50;99.90
10660;DHT22;5378;53.206;13.316;2024-03-23T05:15:42;8.50;99.90
10660;DHT22;5378;53.206;13.316;2024-03-23T05:18:27;8.50;99.90
10660;DHT22;5378;53.206;13.316;2024-03-23T05:21:12;8.40;99.90
10660;DHT22;5378;53.206;13.316;2024-03-23T05:23:57;8.40;99.90
10660;DHT22;5378;53.206;13.316;2024-03-23T05:26:41;8.50;99.90
10660;DHT22;5378;53.206;13.316;2024-03-23T05:29:26;8.50;99.90
10660;DHT22;5378;53.206;13.316;2024-03-23T05:32:10;8.50;99.90
10660;DHT22;5378;53.206;13.316;2024-03-23T05:34:55;8.50;99.90
10660;DHT22;5378;53.206;13.316;2024-03-23T05:37:42;8.50;99.90
10660;DHT22;5378;53.206;13.316;2024-03-23T05:40:27;8.50;99.90
10660;DHT22;5378;53.206;13.316;2024-03-23T05:43:11;8.60;99.90
10660;DHT22;5378;53.206;13.316;2024-03-23T05:45:59;10.80;99.90
10660;DHT22;5378;53.206;13.316;2024-03-23T05:48:45;8.60;99.90
10660;DHT22;5378;53.206;13.316;2024-03-23T05:51:30;8.60;99.90
10660;DHT22;5378;53.206;13.316;2024-03-23T05:54:14;8.60;99.90
10660;DHT22;5378;53.206;13.316;2024-03-23T05:56:59;8.60;99.90
10660;DHT22;5378;53.206;13.316;2024-03-23T05:59:44;8.60;99.90
10660;DHT22;5378;53.206;13.316;2024-03-23T06:02:29;8.60;99.90
10660;DHT22;5378;53.206;13.316;2024-03-23T06:05:13;8.50;99.90
10660;DHT22;5378;53.206;13.316;2024-03-23T06:07:58;8.40;99.90
10660;DHT22;5378;53.206;13.316;2024-03-23T06:10:42;8.40;99.90
10660;DHT22;5378;53.206;13.316;2024-03-23T06:13:27;8.40;99.90
10660;DHT22;5378;53.206;13.316;2024-03-23T06:16:14;8.20;99.90
10660;DHT22;5378;53.206;13.316;2024-03-23T06:18:59;8.30;99.90
10660;DHT22;5378;53.206;13.316;2024-03-23T06:21:44;8.30;99.90
10660;DHT22;5378;53.206;13.316;2024-03-23T06:24:29;8.30;99.90
10660;DHT22;5378;53.206;13.316;2024-03-23T06:27:13;8.20;99.90
10660;DHT22;5378;53.206;13.316;2024-03-23T06:29:59;9.70;99.90
10660;DHT22;5378;53.206;13.316;2024-03-23T06:32:43;8.30;99.90
10660;DHT22;5378;53.206;13.316;2024-03-23T06:35:28;8.30;99.90
10660;DHT22;5378;53.206;13.316;2024-03-23T06:38:12;8.30;99.90
10660;DHT22;5378;53.206;13.316;2024-03-23T06:40:57;8.40;99.90
10660;DHT22;5378;53.206;13.316;2024-03-23T06:43:42;8.40;99.90
10660;DHT22;5378;53.206;13.316;2024-03-23T06:46:27;8.40;99.90
10660;DHT22;5378;53.206;13.316;2024-03-23T06:49:12;8.40;99.90
10660;DHT22;5378;53.206;13.316;2024-03-23T06:51:57;8.40;99.90
10660;DHT22;5378;53.206;13.316;2024-03-23T06:54:42;8.40;99.90
10660;DHT22;5378;53.206;13.316;2024-03-23T06:57:26;8.40;99.90
10660;DHT22;5378;53.206;13.316;2024-03-23T07:00:12;8.40;99.90
10660;DHT22;5378;53.206;13.316;2024-03-23T07:02:58;8.50;99.90
10660;DHT22;5378;53.206;13.316;2024-03-23T07:05:42;8.50;99.90
10660;DHT22;5378;53.206;13.316;2024-03-23T07:08:27;8.60;99.90
10660;DHT22;5378;53.206;13.316;2024-03-23T07:11:11;8.70;99.90
10660;DHT22;5378;53.206;13.316;2024-03-23T07:13:56;8.70;99.90
10660;DHT22;5378;53.206;13.316;2024-03-23T07:16:41;8.90;99.90
10660;DHT22;5378;53.206;13.316;2024-03-23T07:19:25;8.90;99.90
10660;DHT22;5378;53.206;13.316;2024-03-23T07:22:10;9.00;99.90
10660;DHT22;5378;53.206;13.316;2024-03-23T07:24:55;9.00;99.90
10660;DHT22;5378;53.206;13.316;2024-03-23T07:27:39;9.00;99.90
10660;DHT22;5378;53.206;13.316;2024-03-23T07:30:24;9.10;99.90
10660;DHT22;5378;53.206;13.316;2024-03-23T07:33:09;9.20;99.90
10660;DHT22;5378;53.206;13.316;2024-03-23T07:35:54;9.30;99.90
10660;DHT22;5378;53.206;13.316;2024-03-23T07:38:42;9.40;99.90
10660;DHT22;5378;53.206;13.316;2024-03-23T07:41:27;9.50;99.90
10660;DHT22;5378;53.206;13.316;2024-03-23T07:44:11;9.50;99.90
10660;DHT22;5378;53.206;13.316;2024-03-23T07:46:56;9.60;99.90
10660;DHT22;5378;53.206;13.316;2024-03-23T07:49:41;9.60;99.90
10660;DHT22;5378;53.206;13.316;2024-03-23T07:52:29;9.60;99.90
10660;DHT22;5378;53.206;13.316;2024-03-23T07:55:14;9.50;99.90
10660;DHT22;5378;53.206;13.316;2024-03-23T07:57:58;9.60;99.90
10660;DHT22;5378;53.206;13.316;2024-03-23T08:00:42;9.60;99.90
10660;DHT22;5378;53.206;13.316;2024-03-23T08:03:27;9.70;99.90
10660;DHT22;5378;53.206;13.316;2024-03-23T08:06:19;9.70;99.90
10660;DHT22;5378;53.206;13.316;2024-03-23T08:09:04;9.80;99.90
10660;DHT22;5378;53.206;13.316;2024-03-23T08:11:49;9.80;99.90
10660;DHT22;5378;53.206;13.316;2024-03-23T08:14:33;9.80;99.90
10660;DHT22;5378;53.206;13.316;2024-03-23T08:17:18;9.90;99.90
10660;DHT22;5378;53.206;13.316;2024-03-23T08:20:03;9.80;99.90
10660;DHT22;5378;53.206;13.316;2024-03-23T08:22:47;9.80;99.90
10660;DHT22;5378;53.206;13.316;2024-03-23T08:25:32;9.80;99.90
10660;DHT22;5378;53.206;13.316;2024-03-23T08:28:17;9.70;99.90
10660;DHT22;5378;53.206;13.316;2024-03-23T08:31:07;9.60;99.90
10660;DHT22;5378;53.206;13.316;2024-03-23T08:33:52;9.70;99.90
10660;DHT22;5378;53.206;13.316;2024-03-23T08:36:37;9.60;99.90
10660;DHT22;5378;53.206;13.316;2024-03-23T08:39:21;9.60;99.90
10660;DHT22;5378;53.206;13.316;2024-03-23T08:42:06;9.60;99.90
10660;DHT22;5378;53.206;13.316;2024-03-23T08:44:51;9.60;99.90
10660;DHT22;5378;53.206;13.316;2024-03-23T08:47:35;9.50;99.90
10660;DHT22;5378;53.206;13.316;2024-03-23T08:50:20;9.50;99.90
10660;DHT22;5378;53.206;13.316;2024-03-23T08:53:06;9.50;99.90
10660;DHT22;5378;53.206;13.316;2024-03-23T08:55:54;9.70;99.90
10660;DHT22;5378;53.206;13.316;2024-03-23T08:58:39;9.70;99.90
10660;DHT22;5378;53.206;13.316;2024-03-23T09:01:23;10.00;99.90
10660;DHT22;5378;53.206;13.316;2024-03-23T09:04:08;10.10;99.90
10660;DHT22;5378;53.206;13.316;2024-03-23T09:06:53;10.40;99.90
10660;DHT22;5378;53.206;13.316;2024-03-23T09:09:40;10.50;99.90
10660;DHT22;5378;53.206;13.316;2024-03-23T09:12:25;10.70;99.90
10660;DHT22;5378;53.206;13.316;2024-03-23T09:15:10;10.80;99.90
10660;DHT22;5378;53.206;13.316;2024-03-23T09:17:54;10.80;99.90
10660;DHT22;5378;53.206;13.316;2024-03-23T09:20:39;10.80;99.90
10660;DHT22;5378;53.206;13.316;2024-03-23T09:23:24;10.90;99.90
10660;DHT22;5378;53.206;13.316;2024-03-23T09:26:09;10.90;99.90
10660;DHT22;5378;53.206;13.316;2024-03-23T09:28:54;10.80;99.90
10660;DHT22;5378;53.206;13.316;2024-03-23T09:31:39;10.80;99.90
10660;DHT22;5378;53.206;13.316;2024-03-23T09:34:25;10.70;99.90
10660;DHT22;5378;53.206;13.316;2024-03-23T09:37:10;10.60;99.90
10660;DHT22;5378;53.206;13.316;2024-03-23T09:39:55;10.60;99.90
10660;DHT22;5378;53.206;13.316;2024-03-23T09:42:40;10.70;99.90
10660;DHT22;5378;53.206;13.316;2024-03-23T09:45:29;10.70;99.90
10660;DHT22;5378;53.206;13.316;2024-03-23T09:48:14;10.60;99.90
10660;DHT22;5378;53.206;13.316;2024-03-23T09:50:58;10.60;99.90
10660;DHT22;5378;53.206;13.316;2024-03-23T09:53:43;10.60;99.90
10660;DHT22;5378;53.206;13.316;2024-03-23T09:56:28;10.70;99.90
10660;DHT22;5378;53.206;13.316;2024-03-23T09:59:12;10.80;99.90
10660;DHT22;5378;53.206;13.316;2024-03-23T10:01:57;10.80;99.90
10660;DHT22;5378;53.206;13.316;2024-03-23T10:04:42;10.90;99.90
10660;DHT22;5378;53.206;13.316;2024-03-23T10:07:27;10.90;99.90
10660;DHT22;5378;53.206;13.316;2024-03-23T10:10:16;10.90;99.90
10660;DHT22;5378;53.206;13.316;2024-03-23T10:13:01;13.30;99.90
10660;DHT22;5378;53.206;13.316;2024-03-23T10:15:45;10.90;99.90
10660;DHT22;5378;53.206;13.316;2024-03-23T10:18:30;10.90;99.90
10660;DHT22;5378;53.206;13.316;2024-03-23T10:21:17;11.00;99.90
10660;DHT22;5378;53.206;13.316;2024-03-23T10:24:08;11.00;99.90
10660;DHT22;5378;53.206;13.316;2024-03-23T10:26:56;10.90;99.90
10660;DHT22;5378;53.206;13.316;2024-03-23T10:29:41;11.00;99.90
10660;DHT22;5378;53.206;13.316;2024-03-23T10:32:25;11.00;99.90
10660;DHT22;5378;53.206;13.316;2024-03-23T10:35:19;10.90;99.90
10660;DHT22;5378;53.206;13.316;2024-03-23T10:38:07;11.00;99.90
10660;DHT22;5378;53.206;13.316;2024-03-23T10:40:53;11.20;99.90
10660;DHT22;5378;53.206;13.316;2024-03-23T10:43:39;11.20;99.90
10660;DHT22;5378;53.206;13.316;2024-03-23T10:46:24;11.30;99.90
10660;DHT22;5378;53.206;13.316;2024-03-23T10:49:09;11.30;99.90
10660;DHT22;5378;53.206;13.316;2024-03-23T10:51:54;11.40;99.90
10660;DHT22;5378;53.206;13.316;2024-03-23T10:54:40;11.50;99.90
10660;DHT22;5378;53.206;13.316;2024-03-23T11:00:21;11.70;99.90
10660;DHT22;5378;53.206;13.316;2024-03-23T11:06:35;11.70;99.90
10660;DHT22;5378;53.206;13.316;2024-03-23T11:09:46;11.60;99.90
10660;DHT22;5378;53.206;13.316;2024-03-23T11:12:30;11.50;99.90
10660;DHT22;5378;53.206;13.316;2024-03-23T11:15:19;11.40;99.90
10660;DHT22;5378;53.206;13.316;2024-03-23T11:18:06;11.30;99.90
10660;DHT22;5378;53.206;13.316;2024-03-23T11:20:52;11.30;99.90
10660;DHT22;5378;53.206;13.316;2024-03-23T11:23:37;11.20;99.90
10660;DHT22;5378;53.206;13.316;2024-03-23T11:26:21;11.20;99.90
10660;DHT22;5378;53.206;13.316;2024-03-23T11:29:10;11.30;99.90
10660;DHT22;5378;53.206;13.316;2024-03-23T11:31:54;11.40;99.90
10660;DHT22;5378;53.206;13.316;2024-03-23T11:34:39;11.50;99.90
10660;DHT22;5378;53.206;13.316;2024-03-23T11:37:24;11.50;99.90
10660;DHT22;5378;53.206;13.316;2024-03-23T11:40:19;11.50;99.90
10660;DHT22;5378;53.206;13.316;2024-03-23T11:43:05;11.40;99.90
10660;DHT22;5378;53.206;13.316;2024-03-23T11:45:51;11.40;99.90
10660;DHT22;5378;53.206;13.316;2024-03-23T11:48:37;11.40;99.90
10660;DHT22;5378;53.206;13.316;2024-03-23T11:51:21;11.40;99.90
10660;DHT22;5378;53.206;13.316;2024-03-23T11:54:08;11.50;99.90
10660;DHT22;5378;53.206;13.316;2024-03-23T11:56:57;11.60;99.90
10660;DHT22;5378;53.206;13.316;2024-03-23T11:59:42;11.80;99.90
10660;DHT22;5378;53.206;13.316;2024-03-23T12:02:27;12.00;99.90
10660;DHT22;5378;53.206;13.316;2024-03-23T12:05:16;12.10;99.90
10660;DHT22;5378;53.206;13.316;2024-03-23T12:11:16;12.40;99.90
10660;DHT22;5378;53.206;13.316;2024-03-23T12:14:01;12.40;99.90
10660;DHT22;5378;53.206;13.316;2024-03-23T12:16:46;12.40;99.90
10660;DHT22;5378;53.206;13.316;2024-03-23T12:19:31;12.30;99.90
10660;DHT22;5378;53.206;13.316;2024-03-23T12:22:15;12.10;99.90
10660;DHT22;5378;53.206;13.316;2024-03-23T12:25:05;12.00;99.90
10660;DHT22;5378;53.206;13.316;2024-03-23T12:27:51;12.00;99.90
10660;DHT22;5378;53.206;13.316;2024-03-23T12:30:39;12.00;99.90
10660;DHT22;5378;53.206;13.316;2024-03-23T12:33:24;12.20;99.90
10660;DHT22;5378;53.206;13.316;2024-03-23T12:36:08;12.30;99.90
10660;DHT22;5378;53.206;13.316;2024-03-23T12:38:53;12.40;99.90
10660;DHT22;5378;53.206;13.316;2024-03-23T12:41:37;12.50;99.90
10660;DHT22;5378;53.206;13.316;2024-03-23T12:44:22;12.40;99.90
10660;DHT22;5378;53.206;13.316;2024-03-23T12:47:07;12.20;99.90
10660;DHT22;5378;53.206;13.316;2024-03-23T12:49:51;12.10;99.90
10660;DHT22;5378;53.206;13.316;2024-03-23T12:52:37;12.00;99.90
10660;DHT22;5378;53.206;13.316;2024-03-23T12:55:21;12.00;99.90
10660;DHT22;5378;53.206;13.316;2024-03-23T12:58:06;12.00;99.90
10660;DHT22;5378;53.206;13.316;2024-03-23T13:00:51;12.00;99.90
10660;DHT22;5378;53.206;13.316;2024-03-23T13:03:36;12.20;99.90
10660;DHT22;5378;53.206;13.316;2024-03-23T13:06:20;12.30;99.90
10660;DHT22;5378;53.206;13.316;2024-03-23T13:09:05;12.40;99.90
10660;DHT22;5378;53.206;13.316;2024-03-23T13:11:50;12.50;99.90
10660;DHT22;5378;53.206;13.316;2024-03-23T13:14:35;12.50;99.90
10660;DHT22;5378;53.206;13.316;2024-03-23T13:17:20;12.60;99.90
10660;DHT22;5378;53.206;13.316;2024-03-23T13:20:05;12.60;99.90
10660;DHT22;5378;53.206;13.316;2024-03-23T13:22:50;12.40;99.90
10660;DHT22;5378;53.206;13.316;2024-03-23T13:25:36;12.40;99.90
10660;DHT22;5378;53.206;13.316;2024-03-23T13:28:22;12.30;99.90
10660;DHT22;5378;53.206;13.316;2024-03-23T13:31:06;12.20;99.90
10660;DHT22;5378;53.206;13.316;2024-03-23T13:33:52;11.90;99.90
10660;DHT22;5378;53.206;13.316;2024-03-23T13:36:37;11.30;99.90
10660;DHT22;5378;53.206;13.316;2024-03-23T13:39:21;10.70;99.90
10660;DHT22;5378;53.206;13.316;2024-03-23T13:42:06;10.20;99.90
10660;DHT22;5378;53.206;13.316;2024-03-23T13:44:51;9.80;99.90
10660;DHT22;5378;53.206;13.316;2024-03-23T13:47:35;9.50;99.90
10660;DHT22;5378;53.206;13.316;2024-03-23T13:50:20;9.40;99.90
10660;DHT22;5378;53.206;13.316;2024-03-23T13:53:04;9.40;99.90
10660;DHT22;5378;53.206;13.316;2024-03-23T13:55:48;9.50;99.90
10660;DHT22;5378;53.206;13.316;2024-03-23T13:58:33;9.70;99.90
10660;DHT22;5378;53.206;13.316;2024-03-23T14:01:18;10.10;99.90
10660;DHT22;5378;53.206;13.316;2024-03-23T14:04:03;10.30;99.90
10660;DHT22;5378;53.206;13.316;2024-03-23T14:06:48;10.50;99.90
10660;DHT22;5378;53.206;13.316;2024-03-23T14:09:32;10.50;99.90
10660;DHT22;5378;53.206;13.316;2024-03-23T14:12:17;10.40;99.90
10660;DHT22;5378;53.206;13.316;2024-03-23T14:15:05;10.30;99.90
10660;DHT22;5378;53.206;13.316;2024-03-23T14:17:50;10.10;99.90
10660;DHT22;5378;53.206;13.316;2024-03-23T14:20:35;10.10;99.90
10660;DHT22;5378;53.206;13.316;2024-03-23T14:23:20;10.00;99.90
10660;DHT22;5378;53.206;13.316;2024-03-23T14:26:05;10.10;99.90
10660;DHT22;5378;53.206;13.316;2024-03-23T14:28:49;10.00;99.90
10660;DHT22;5378;53.206;13.316;2024-03-23T14:31:35;10.00;99.90
10660;DHT22;5378;53.206;13.316;2024-03-23T14:34:19;10.00;99.90
10660;DHT22;5378;53.206;13.316;2024-03-23T14:37:04;9.90;99.90
10660;DHT22;5378;53.206;13.316;2024-03-23T14:39:49;9.90;99.90
10660;DHT22;5378;53.206;13.316;2024-03-23T14:42:34;10.00;99.90
10660;DHT22;5378;53.206;13.316;2024-03-23T14:45:19;10.00;99.90
10660;DHT22;5378;53.206;13.316;2024-03-23T14:48:04;10.00;99.90
10660;DHT22;5378;53.206;13.316;2024-03-23T14:50:56;10.00;99.90
10660;DHT22;5378;53.206;13.316;2024-03-23T14:53:45;10.00;99.90
10660;DHT22;5378;53.206;13.316;2024-03-23T14:56:29;9.90;99.90
10660;DHT22;5378;53.206;13.316;2024-03-23T14:59:14;9.90;99.90
10660;DHT22;5378;53.206;13.316;2024-03-23T15:01:58;10.60;99.90
10660;DHT22;5378;53.206;13.316;2024-03-23T15:04:42;9.80;99.90
10660;DHT22;5378;53.206;13.316;2024-03-23T15:07:27;9.70;99.90
10660;DHT22;5378;53.206;13.316;2024-03-23T15:10:12;9.60;99.90
10660;DHT22;5378;53.206;13.316;2024-03-23T15:12:57;9.60;99.90
10660;DHT22;5378;53.206;13.316;2024-03-23T15:15:42;9.50;99.90
10660;DHT22;5378;53.206;13.316;2024-03-23T15:18:29;9.60;99.90
10660;DHT22;5378;53.206;13.316;2024-03-23T15:21:14;9.60;99.90
10660;DHT22;5378;53.206;13.316;2024-03-23T15:24:05;9.60;99.90
10660;DHT22;5378;53.206;13.316;2024-03-23T15:26:50;9.60;99.90
10660;DHT22;5378;53.206;13.316;2024-03-23T15:29:36;9.50;99.90
10660;DHT22;5378;53.206;13.316;2024-03-23T15:32:21;9.60;99.90
10660;DHT22;5378;53.206;13.316;2024-03-23T15:35:05;9.60;99.90
10660;DHT22;5378;53.206;13.316;2024-03-23T15:37:51;9.60;99.90
10660;DHT22;5378;53.206;13.316;2024-03-23T15:40:36;9.50;99.90
10660;DHT22;5378;53.206;13.316;2024-03-23T15:43:21;9.50;99.90
10660;DHT22;5378;53.206;13.316;2024-03-23T15:46:05;9.40;99.90
10660;DHT22;5378;53.206;13.316;2024-03-23T15:48:55;9.40;99.90
10660;DHT22;5378;53.206;13.316;2024-03-23T15:51:39;9.20;99.90
10660;DHT22;5378;53.206;13.316;2024-03-23T15:54:26;8.80;99.90
10660;DHT22;5378;53.206;13.316;2024-03-23T15:57:10;8.60;99.90
10660;DHT22;5378;53.206;13.316;2024-03-23T15:59:55;8.40;99.90
10660;DHT22;5378;53.206;13.316;2024-03-23T16:02:40;8.30;99.90
10660;DHT22;5378;53.206;13.316;2024-03-23T16:05:25;8.30;99.90
10660;DHT22;5378;53.206;13.316;2024-03-23T16:08:12;8.30;99.90
10660;DHT22;5378;53.206;13.316;2024-03-23T16:11:03;10.20;99.90
10660;DHT22;5378;53.206;13.316;2024-03-23T16:13:47;8.50;99.90
10660;DHT22;5378;53.206;13.316;2024-03-23T16:16:32;8.60;99.90
10660;DHT22;5378;53.206;13.316;2024-03-23T16:19:16;8.70;99.90
10660;DHT22;5378;53.206;13.316;2024-03-23T16:22:01;8.70;99.90
10660;DHT22;5378;53.206;13.316;2024-03-23T16:24:46;8.80;99.90
10660;DHT22;5378;53.206;13.316;2024-03-23T16:27:31;8.70;99.90
10660;DHT22;5378;53.206;13.316;2024-03-23T16:30:16;8.60;99.90
10660;DHT22;5378;53.206;13.316;2024-03-23T16:33:00;8.50;99.90
10660;DHT22;5378;53.206;13.316;2024-03-23T16:35:55;8.30;99.90
10660;DHT22;5378;53.206;13.316;2024-03-23T16:38:41;8.20;99.90
10660;DHT22;5378;53.206;13.316;2024-03-23T16:41:25;8.00;99.90
10660;DHT22;5378;53.206;13.316;2024-03-23T16:44:11;7.90;99.90
10660;DHT22;5378;53.206;13.316;2024-03-23T16:46:56;7.80;99.90
10660;DHT22;5378;53.206;13.316;2024-03-23T16:49:41;7.60;99.90
10660;DHT22;5378;53.206;13.316;2024-03-23T16:52:26;7.70;99.90
10660;DHT22;5378;53.206;13.316;2024-03-23T16:55:10;7.70;99.90
10660;DHT22;5378;53.206;13.316;2024-03-23T16:57:55;7.70;99.90
10660;DHT22;5378;53.206;13.316;2024-03-23T17:00:39;7.70;99.90
10660;DHT22;5378;53.206;13.316;2024-03-23T17:03:24;6.20;99.90
10660;DHT22;5378;53.206;13.316;2024-03-23T17:06:09;7.70;99.90
10660;DHT22;5378;53.206;13.316;2024-03-23T17:08:56;7.40;99.90
10660;DHT22;5378;53.206;13.316;2024-03-23T17:11:40;9.70;99.90
10660;DHT22;5378;53.206;13.316;2024-03-23T17:14:27;7.10;99.90
10660;DHT22;5378;53.206;13.316;2024-03-23T17:17:11;7.00;99.90
10660;DHT22;5378;53.206;13.316;2024-03-23T17:19:59;6.70;99.90
10660;DHT22;5378;53.206;13.316;2024-03-23T17:22:45;6.60;99.90
10660;DHT22;5378;53.206;13.316;2024-03-23T17:25:30;6.70;99.90
10660;DHT22;5378;53.206;13.316;2024-03-23T17:28:14;6.70;99.90
10660;DHT22;5378;53.206;13.316;2024-03-23T17:31:00;6.60;99.90
10660;DHT22;5378;53.206;13.316;2024-03-23T17:33:44;6.60;99.90
10660;DHT22;5378;53.206;13.316;2024-03-23T17:36:29;6.60;99.90
10660;DHT22;5378;53.206;13.316;2024-03-23T17:39:14;6.50;99.90
10660;DHT22;5378;53.206;13.316;2024-03-23T17:41:59;6.40;99.90
10660;DHT22;5378;53.206;13.316;2024-03-23T17:44:45;6.30;99.90
10660;DHT22;5378;53.206;13.316;2024-03-23T17:47:38;6.20;99.90
10660;DHT22;5378;53.206;13.316;2024-03-23T17:50:23;6.10;99.90
10660;DHT22;5378;53.206;13.316;2024-03-23T17:53:07;6.00;99.90
10660;DHT22;5378;53.206;13.316;2024-03-23T17:55:52;5.80;99.90
10660;DHT22;5378;53.206;13.316;2024-03-23T17:58:36;5.70;99.90
10660;DHT22;5378;53.206;13.316;2024-03-23T18:01:21;5.60;99.90
10660;DHT22;5378;53.206;13.316;2024-03-23T18:04:07;5.50;99.90
10660;DHT22;5378;53.206;13.316;2024-03-23T18:06:52;5.50;99.90
10660;DHT22;5378;53.206;13.316;2024-03-23T18:09:37;5.40;99.90
10660;DHT22;5378;53.206;13.316;2024-03-23T18:12:22;5.20;99.90
10660;DHT22;5378;53.206;13.316;2024-03-23T18:15:08;5.20;99.90
10660;DHT22;5378;53.206;13.316;2024-03-23T18:17:53;5.10;99.90
10660;DHT22;5378;53.206;13.316;2024-03-23T18:20:37;5.10;99.90
10660;DHT22;5378;53.206;13.316;2024-03-23T18:23:22;5.00;99.90
10660;DHT22;5378;53.206;13.316;2024-03-23T18:26:08;5.00;99.90
10660;DHT22;5378;53.206;13.316;2024-03-23T18:28:53;5.00;99.90
10660;DHT22;5378;53.206;13.316;2024-03-23T18:31:38;4.90;99.90
10660;DHT22;5378;53.206;13.316;2024-03-23T18:34:22;4.90;99.90
10660;DHT22;5378;53.206;13.316;2024-03-23T18:37:06;4.80;99.90
10660;DHT22;5378;53.206;13.316;2024-03-23T18:39:51;4.70;99.90